sensor_id;sensor_type;location;lat;lon;timestamp;pressure;altitude;pressure_sealevel;temperature;humidity
51452;BME280;37521;52.020;-1.740;2023-04-09T00:01:02;100739.09;;;3.71;100.00
51452;BME280;37521;52.020;-1.740;2023-04-09T00:03:32;100736.53;;;3.68;100.00
51452;BME280;37521;52.020;-1.740;2023-04-09T00:06:00;100726.94;;;3.70;100.00
51452;BME280;37521;52.020;-1.740;2023-04-09T00:08:28;100731.22;;;3.74;100.00
51452;BME280;37521;52.020;-1.740;2023-04-09T00:10:57;100719.91;;;3.77;100.00
51452;BME280;37521;52.020;-1.740;2023-04-09T00:13:25;100720.75;;;3.79;100.00
51452;BME280;37521;52.020;-1.740;2023-04-09T00:16:05;100721.66;;;3.78;100.00
51452;BME280;37521;52.020;-1.740;2023-04-09T00:18:34;100714.66;;;3.80;100.00
51452;BME280;37521;52.020;-1.740;2023-04-09T00:21:03;100715.50;;;3.83;100.00
51452;BME280;37521;52.020;-1.740;2023-04-09T00:23:33;100713.75;;;3.86;100.00
51452;BME280;37521;52.020;-1.740;2023-04-09T00:26:01;100715.50;;;3.83;100.00
51452;BME280;37521;52.020;-1.740;2023-04-09T00:28:29;100713.78;;;3.82;100.00
51452;BME280;37521;52.020;-1.740;2023-04-09T00:30:58;100710.31;;;3.82;100.00
51452;BME280;37521;52.020;-1.740;2023-04-09T00:33:26;100712.03;;;3.83;100.00
51452;BME280;37521;52.020;-1.740;2023-04-09T00:35:55;100712.03;;;3.83;100.00
51452;BME280;37521;52.020;-1.740;2023-04-09T00:38:23;100706.84;;;3.78;100.00
51452;BME280;37521;52.020;-1.740;2023-04-09T00:40:52;100704.28;;;3.72;100.00
51452;BME280;37521;52.020;-1.740;2023-04-09T00:43:20;100697.34;;;3.68;100.00
51452;BME280;37521;52.020;-1.740;2023-04-09T00:45:48;100695.63;;;3.66;100.00
51452;BME280;37521;52.020;-1.740;2023-04-09T00:48:17;100700.84;;;3.66;100.00
51452;BME280;37521;52.020;-1.740;2023-04-09T00:50:45;100693.03;;;3.64;100.00
51452;BME280;37521;52.020;-1.740;2023-04-09T00:53:15;100685.19;;;3.63;100.00
51452;BME280;37521;52.020;-1.740;2023-04-09T00:55:43;100696.50;;;3.60;100.00
51452;BME280;37521;52.020;-1.740;2023-04-09T00:58:12;100688.69;;;3.59;100.00
51452;BME280;37521;52.020;-1.740;2023-04-09T01:00:40;100686.09;;;3.59;100.00
51452;BME280;37521;52.020;-1.740;2023-04-09T01:03:08;100682.63;;;3.58;100.00
51452;BME280;37521;52.020;-1.740;2023-04-09T01:05:41;100673.91;;;3.59;100.00
51452;BME280;37521;52.020;-1.740;2023-04-09T01:08:21;100673.94;;;3.56;100.00
51452;BME280;37521;52.020;-1.740;2023-04-09T01:11:01;100679.13;;;3.59;100.00
51452;BME280;37521;52.020;-1.740;2023-04-09T01:13:41;100675.66;;;3.57;100.00
51452;BME280;37521;52.020;-1.740;2023-04-09T01:16:15;100676.53;;;3.58;100.00
51452;BME280;37521;52.020;-1.740;2023-04-09T01:18:49;100671.28;;;3.59;100.00
51452;BME280;37521;52.020;-1.740;2023-04-09T01:21:22;100665.19;;;3.62;100.00
51452;BME280;37521;52.020;-1.740;2023-04-09T01:24:01;100663.44;;;3.61;100.00
51452;BME280;37521;52.020;-1.740;2023-04-09T01:26:47;100658.22;;;3.62;100.00
51452;BME280;37521;52.020;-1.740;2023-04-09T01:29:26;100661.66;;;3.67;100.00
51452;BME280;37521;52.020;-1.740;2023-04-09T01:31:58;100663.38;;;3.71;100.00
51452;BME280;37521;52.020;-1.740;2023-04-09T01:34:28;100659.81;;;3.78;100.00
51452;BME280;37521;52.020;-1.740;2023-04-09T01:36:59;100659.81;;;3.81;100.00
51452;BME280;37521;52.020;-1.740;2023-04-09T01:39:29;100660.69;;;3.82;100.00
51452;BME280;37521;52.020;-1.740;2023-04-09T01:41:58;100653.69;;;3.81;100.00
51452;BME280;37521;52.020;-1.740;2023-04-09T01:44:31;100651.97;;;3.81;100.00
51452;BME280;37521;52.020;-1.740;2023-04-09T01:47:00;100651.09;;;3.79;100.00
51452;BME280;37521;52.020;-1.740;2023-04-09T01:49:29;100657.19;;;3.80;100.00
51452;BME280;37521;52.020;-1.740;2023-04-09T01:51:58;100658.13;;;3.76;100.00
51452;BME280;37521;52.020;-1.740;2023-04-09T01:54:26;100664.22;;;3.75;100.00
51452;BME280;37521;52.020;-1.740;2023-04-09T01:56:56;100664.22;;;3.75;100.00
51452;BME280;37521;52.020;-1.740;2023-04-09T01:59:24;100659.00;;;3.72;100.00
51452;BME280;37521;52.020;-1.740;2023-04-09T02:01:57;100660.78;;;3.70;100.00
51452;BME280;37521;52.020;-1.740;2023-04-09T02:04:31;100658.19;;;3.68;100.00
51452;BME280;37521;52.020;-1.740;2023-04-09T02:07:05;100661.66;;;3.66;100.00
51452;BME280;37521;52.020;-1.740;2023-04-09T02:09:38;100664.28;;;3.64;100.00
51452;BME280;37521;52.020;-1.740;2023-04-09T02:12:11;100655.63;;;3.59;100.00
51452;BME280;37521;52.020;-1.740;2023-04-09T02:14:40;100658.25;;;3.58;100.00
51452;BME280;37521;52.020;-1.740;2023-04-09T02:17:11;100647.84;;;3.54;100.00
51452;BME280;37521;52.020;-1.740;2023-04-09T02:19:40;100647.88;;;3.48;100.00
51452;BME280;37521;52.020;-1.740;2023-04-09T02:22:09;100646.19;;;3.43;100.00
51452;BME280;37521;52.020;-1.740;2023-04-09T02:24:38;100641.84;;;3.42;100.00
51452;BME280;37521;52.020;-1.740;2023-04-09T02:27:07;100642.72;;;3.38;100.00
51452;BME280;37521;52.020;-1.740;2023-04-09T02:29:37;100641.03;;;3.31;100.00
51452;BME280;37521;52.020;-1.740;2023-04-09T02:32:06;100633.25;;;3.23;100.00
51452;BME280;37521;52.020;-1.740;2023-04-09T02:34:35;100634.16;;;3.14;100.00
51452;BME280;37521;52.020;-1.740;2023-04-09T02:37:04;100642.00;;;3.13;100.00
51452;BME280;37521;52.020;-1.740;2023-04-09T02:39:32;100637.66;;;3.16;100.00
51452;BME280;37521;52.020;-1.740;2023-04-09T02:42:01;100641.09;;;3.21;100.00
51452;BME280;37521;52.020;-1.740;2023-04-09T02:44:29;100645.41;;;3.30;100.00
51452;BME280;37521;52.020;-1.740;2023-04-09T02:46:57;100650.56;;;3.33;100.00
51452;BME280;37521;52.020;-1.740;2023-04-09T02:49:25;100654.94;;;3.36;100.00
51452;BME280;37521;52.020;-1.740;2023-04-09T02:51:55;100649.69;;;3.42;100.00
51452;BME280;37521;52.020;-1.740;2023-04-09T02:54:23;100652.25;;;3.48;100.00
51452;BME280;37521;52.020;-1.740;2023-04-09T02:56:51;100650.50;;;3.45;100.00
51452;BME280;37521;52.020;-1.740;2023-04-09T02:59:19;100647.91;;;3.41;100.00
51452;BME280;37521;52.020;-1.740;2023-04-09T03:01:48;100647.09;;;3.34;100.00
51452;BME280;37521;52.020;-1.740;2023-04-09T03:04:16;100649.75;;;3.30;100.00
51452;BME280;37521;52.020;-1.740;2023-04-09T03:06:44;100642.84;;;3.22;100.00
51452;BME280;37521;52.020;-1.740;2023-04-09T03:09:14;100636.78;;;3.14;100.00
51452;BME280;37521;52.020;-1.740;2023-04-09T03:11:42;100624.66;;;3.09;100.00
51452;BME280;37521;52.020;-1.740;2023-04-09T03:14:10;100632.50;;;3.04;100.00
51452;BME280;37521;52.020;-1.740;2023-04-09T03:16:38;100621.19;;;3.00;100.00
51452;BME280;37521;52.020;-1.740;2023-04-09T03:19:07;100627.31;;;3.01;100.00
51452;BME280;37521;52.020;-1.740;2023-04-09T03:21:36;100626.44;;;3.02;100.00
51452;BME280;37521;52.020;-1.740;2023-04-09T03:24:04;100628.19;;;2.98;100.00
51452;BME280;37521;52.020;-1.740;2023-04-09T03:26:34;100627.34;;;2.95;100.00
51452;BME280;37521;52.020;-1.740;2023-04-09T03:29:05;100623.03;;;2.88;100.00
51452;BME280;37521;52.020;-1.740;2023-04-09T03:31:33;100627.41;;;2.83;100.00
51452;BME280;37521;52.020;-1.740;2023-04-09T03:34:02;100623.91;;;2.81;100.00
51452;BME280;37521;52.020;-1.740;2023-04-09T03:36:31;100627.41;;;2.80;100.00
51452;BME280;37521;52.020;-1.740;2023-04-09T03:39:02;100618.69;;;2.81;100.00
51452;BME280;37521;52.020;-1.740;2023-04-09T03:41:37;100605.66;;;2.81;100.00
51452;BME280;37521;52.020;-1.740;2023-04-09T03:44:09;100613.50;;;2.78;100.00
51452;BME280;37521;52.020;-1.740;2023-04-09T03:46:52;100618.75;;;2.71;100.00
51452;BME280;37521;52.020;-1.740;2023-04-09T03:49:21;100618.78;;;2.65;100.00
51452;BME280;37521;52.020;-1.740;2023-04-09T03:51:49;100611.84;;;2.64;100.00
51452;BME280;37521;52.020;-1.740;2023-04-09T03:54:18;100611.88;;;2.61;100.00
51452;BME280;37521;52.020;-1.740;2023-04-09T03:56:48;100612.75;;;2.53;100.00
51452;BME280;37521;52.020;-1.740;2023-04-09T03:59:21;100604.97;;;2.45;100.00
51452;BME280;37521;52.020;-1.740;2023-04-09T04:01:50;100591.09;;;2.34;100.00
51452;BME280;37521;52.020;-1.740;2023-04-09T04:04:19;100598.06;;;2.26;100.00
51452;BME280;37521;52.020;-1.740;2023-04-09T04:06:54;100598.09;;;2.19;100.00
51452;BME280;37521;52.020;-1.740;2023-04-09T04:09:31;100593.75;;;2.28;100.00
51452;BME280;37521;52.020;-1.740;2023-04-09T04:12:05;100585.03;;;2.27;100.00
51452;BME280;37521;52.020;-1.740;2023-04-09T04:14:48;100591.16;;;2.22;100.00
51452;BME280;37521;52.020;-1.740;2023-04-09T04:17:23;100584.22;;;2.11;100.00
51452;BME280;37521;52.020;-1.740;2023-04-09T04:19:53;100588.56;;;2.06;100.00
51452;BME280;37521;52.020;-1.740;2023-04-09T04:22:22;100574.69;;;2.03;100.00
51452;BME280;37521;52.020;-1.740;2023-04-09T04:24:56;100578.19;;;1.96;100.00
51452;BME280;37521;52.020;-1.740;2023-04-09T04:27:26;100574.75;;;1.72;100.00
51452;BME280;37521;52.020;-1.740;2023-04-09T04:29:56;100563.47;;;1.59;100.00
51452;BME280;37521;52.020;-1.740;2023-04-09T04:32:39;100565.25;;;1.54;100.00
51452;BME280;37521;52.020;-1.740;2023-04-09T04:35:10;100561.75;;;1.58;100.00
51452;BME280;37521;52.020;-1.740;2023-04-09T04:37:39;100561.75;;;1.60;100.00
51452;BME280;37521;52.020;-1.740;2023-04-09T04:40:08;100560.88;;;1.62;100.00
51452;BME280;37521;52.020;-1.740;2023-04-09T04:42:42;100560.88;;;1.62;100.00
51452;BME280;37521;52.020;-1.740;2023-04-09T04:45:14;100563.47;;;1.59;100.00
51452;BME280;37521;52.020;-1.740;2023-04-09T04:47:47;100563.47;;;1.53;100.00
51452;BME280;37521;52.020;-1.740;2023-04-09T04:50:15;100566.09;;;1.49;100.00
51452;BME280;37521;52.020;-1.740;2023-04-09T04:52:53;100556.56;;;1.49;100.00
51452;BME280;37521;52.020;-1.740;2023-04-09T04:55:25;100561.75;;;1.46;100.00
51452;BME280;37521;52.020;-1.740;2023-04-09T04:57:55;100551.38;;;1.31;100.00
51452;BME280;37521;52.020;-1.740;2023-04-09T05:00:27;100557.41;;;1.19;100.00
51452;BME280;37521;52.020;-1.740;2023-04-09T05:02:59;100552.22;;;1.12;100.00
51452;BME280;37521;52.020;-1.740;2023-04-09T05:05:43;100560.00;;;1.12;100.00
51452;BME280;37521;52.020;-1.740;2023-04-09T05:08:12;100555.69;;;1.03;100.00
51452;BME280;37521;52.020;-1.740;2023-04-09T05:10:41;100565.19;;;0.81;100.00
51452;BME280;37521;52.020;-1.740;2023-04-09T05:13:13;100565.16;;;0.78;100.00
51452;BME280;37521;52.020;-1.740;2023-04-09T05:15:41;100571.22;;;0.71;100.00
51452;BME280;37521;52.020;-1.740;2023-04-09T05:18:09;100575.53;;;0.73;100.00
51452;BME280;37521;52.020;-1.740;2023-04-09T05:20:38;100573.81;;;0.80;100.00
51452;BME280;37521;52.020;-1.740;2023-04-09T05:23:07;100573.84;;;0.83;100.00
51452;BME280;37521;52.020;-1.740;2023-04-09T05:25:41;100568.63;;;0.80;100.00
51452;BME280;37521;52.020;-1.740;2023-04-09T05:28:22;100558.22;;;0.78;100.00
51452;BME280;37521;52.020;-1.740;2023-04-09T05:31:01;100553.03;;;0.78;100.00
51452;BME280;37521;52.020;-1.740;2023-04-09T05:33:32;100539.19;;;0.90;100.00
51452;BME280;37521;52.020;-1.740;2023-04-09T05:36:14;100542.69;;;1.20;100.00
51452;BME280;37521;52.020;-1.740;2023-04-09T05:38:42;100539.22;;;1.45;100.00
51452;BME280;37521;52.020;-1.740;2023-04-09T05:41:10;100526.19;;;1.68;100.00
51452;BME280;37521;52.020;-1.740;2023-04-09T05:43:49;100527.00;;;1.90;100.00
51452;BME280;37521;52.020;-1.740;2023-04-09T05:46:19;100530.38;;;2.13;100.00
51452;BME280;37521;52.020;-1.740;2023-04-09T05:48:48;100526.81;;;2.33;100.00
51452;BME280;37521;52.020;-1.740;2023-04-09T05:51:17;100529.38;;;2.48;100.00
51452;BME280;37521;52.020;-1.740;2023-04-09T05:53:45;100529.34;;;2.56;100.00
51452;BME280;37521;52.020;-1.740;2023-04-09T05:56:14;100525.84;;;2.61;100.00
51452;BME280;37521;52.020;-1.740;2023-04-09T05:58:51;100514.50;;;2.68;100.00
51452;BME280;37521;52.020;-1.740;2023-04-09T06:01:19;100519.66;;;2.73;100.00
51452;BME280;37521;52.020;-1.740;2023-04-09T06:03:48;100514.47;;;2.75;100.00
51452;BME280;37521;52.020;-1.740;2023-04-09T06:06:17;100514.47;;;2.75;100.00
51452;BME280;37521;52.020;-1.740;2023-04-09T06:08:45;100524.88;;;2.75;100.00
51452;BME280;37521;52.020;-1.740;2023-04-09T06:11:13;100516.19;;;2.76;100.00
51452;BME280;37521;52.020;-1.740;2023-04-09T06:13:43;100506.59;;;2.79;100.00
51452;BME280;37521;52.020;-1.740;2023-04-09T06:16:12;100497.84;;;2.85;100.00
51452;BME280;37521;52.020;-1.740;2023-04-09T06:18:42;100512.63;;;2.86;100.00
51452;BME280;37521;52.020;-1.740;2023-04-09T06:21:12;100521.31;;;2.88;100.00
51452;BME280;37521;52.020;-1.740;2023-04-09T06:23:40;100534.31;;;2.92;100.00
51452;BME280;37521;52.020;-1.740;2023-04-09T06:26:08;100536.00;;;2.98;100.00
51452;BME280;37521;52.020;-1.740;2023-04-09T06:28:36;100535.97;;;3.04;100.00
51452;BME280;37521;52.020;-1.740;2023-04-09T06:31:04;100536.84;;;3.08;100.00
51452;BME280;37521;52.020;-1.740;2023-04-09T06:33:34;100546.34;;;3.15;100.00
51452;BME280;37521;52.020;-1.740;2023-04-09T06:36:02;100539.34;;;3.18;100.00
51452;BME280;37521;52.020;-1.740;2023-04-09T06:38:30;100537.59;;;3.22;100.00
51452;BME280;37521;52.020;-1.740;2023-04-09T06:40:58;100535.84;;;3.21;100.00
51452;BME280;37521;52.020;-1.740;2023-04-09T06:43:27;100530.56;;;3.27;100.00
51452;BME280;37521;52.020;-1.740;2023-04-09T06:45:55;100526.19;;;3.31;100.00
51452;BME280;37521;52.020;-1.740;2023-04-09T06:48:23;100524.47;;;3.30;100.00
51452;BME280;37521;52.020;-1.740;2023-04-09T06:50:52;100514.03;;;3.30;100.00
51452;BME280;37521;52.020;-1.740;2023-04-09T06:53:20;100512.25;;;3.35;100.00
51452;BME280;37521;52.020;-1.740;2023-04-09T06:55:48;100513.09;;;3.38;100.00
51452;BME280;37521;52.020;-1.740;2023-04-09T06:58:17;100518.38;;;3.31;100.00
51452;BME280;37521;52.020;-1.740;2023-04-09T07:00:46;100514.09;;;3.23;100.00
51452;BME280;37521;52.020;-1.740;2023-04-09T07:03:14;100522.78;;;3.22;100.00
51452;BME280;37521;52.020;-1.740;2023-04-09T07:05:43;100519.25;;;3.26;100.00
51452;BME280;37521;52.020;-1.740;2023-04-09T07:08:12;100508.78;;;3.33;100.00
51452;BME280;37521;52.020;-1.740;2023-04-09T07:10:40;100500.00;;;3.40;100.00
51452;BME280;37521;52.020;-1.740;2023-04-09T07:13:09;100498.22;;;3.48;100.00
51452;BME280;37521;52.020;-1.740;2023-04-09T07:15:37;100500.78;;;3.51;100.00
51452;BME280;37521;52.020;-1.740;2023-04-09T07:18:08;100498.06;;;3.60;100.00
51452;BME280;37521;52.020;-1.740;2023-04-09T07:20:36;100494.44;;;3.73;100.00
51452;BME280;37521;52.020;-1.740;2023-04-09T07:23:04;100502.19;;;3.84;100.00
51452;BME280;37521;52.020;-1.740;2023-04-09T07:25:34;100494.31;;;3.89;100.00
51452;BME280;37521;52.020;-1.740;2023-04-09T07:28:02;100496.78;;;3.99;100.00
51452;BME280;37521;52.020;-1.740;2023-04-09T07:30:30;100502.88;;;4.01;100.00
51452;BME280;37521;52.020;-1.740;2023-04-09T07:32:58;100515.94;;;4.01;100.00
51452;BME280;37521;52.020;-1.740;2023-04-09T07:35:26;100503.72;;;4.00;100.00
51452;BME280;37521;52.020;-1.740;2023-04-09T07:37:55;100509.81;;;4.01;100.00
51452;BME280;37521;52.020;-1.740;2023-04-09T07:40:24;100506.34;;;4.02;100.00
51452;BME280;37521;52.020;-1.740;2023-04-09T07:42:54;100507.09;;;4.12;100.00
51452;BME280;37521;52.020;-1.740;2023-04-09T07:45:23;100495.63;;;4.23;100.00
51452;BME280;37521;52.020;-1.740;2023-04-09T07:47:52;100498.97;;;4.33;100.00
51452;BME280;37521;52.020;-1.740;2023-04-09T07:50:20;100498.88;;;4.42;100.00
51452;BME280;37521;52.020;-1.740;2023-04-09T07:52:48;100506.63;;;4.50;100.00
51452;BME280;37521;52.020;-1.740;2023-04-09T07:55:17;100510.91;;;4.54;100.00
51452;BME280;37521;52.020;-1.740;2023-04-09T07:57:46;100501.28;;;4.56;100.00
51452;BME280;37521;52.020;-1.740;2023-04-09T08:00:16;100507.41;;;4.55;100.00
51452;BME280;37521;52.020;-1.740;2023-04-09T08:02:44;100498.59;;;4.62;100.00
51452;BME280;37521;52.020;-1.740;2023-04-09T08:05:13;100507.38;;;4.58;100.00
51452;BME280;37521;52.020;-1.740;2023-04-09T08:07:41;100515.13;;;4.64;100.00
51452;BME280;37521;52.020;-1.740;2023-04-09T08:10:09;100513.44;;;4.60;100.00
51452;BME280;37521;52.020;-1.740;2023-04-09T08:12:41;100508.16;;;4.63;100.00
51452;BME280;37521;52.020;-1.740;2023-04-09T08:15:09;100522.13;;;4.60;100.00
51452;BME280;37521;52.020;-1.740;2023-04-09T08:17:39;100511.63;;;4.65;100.00
51452;BME280;37521;52.020;-1.740;2023-04-09T08:20:07;100523.72;;;4.72;100.00
51452;BME280;37521;52.020;-1.740;2023-04-09T08:22:36;100515.69;;;4.84;100.00
51452;BME280;37521;52.020;-1.740;2023-04-09T08:25:04;100514.06;;;4.77;100.00
51452;BME280;37521;52.020;-1.740;2023-04-09T08:27:33;100507.78;;;4.87;100.00
51452;BME280;37521;52.020;-1.740;2023-04-09T08:30:02;100519.91;;;4.95;100.00
51452;BME280;37521;52.020;-1.740;2023-04-09T08:32:30;100511.28;;;4.89;100.00
51452;BME280;37521;52.020;-1.740;2023-04-09T08:35:00;100501.56;;;4.96;100.00
51452;BME280;37521;52.020;-1.740;2023-04-09T08:37:28;100510.28;;;4.97;100.00
51452;BME280;37521;52.020;-1.740;2023-04-09T08:39:56;100501.56;;;4.95;100.00
51452;BME280;37521;52.020;-1.740;2023-04-09T08:42:26;100498.78;;;5.07;100.00
51452;BME280;37521;52.020;-1.740;2023-04-09T08:44:54;100502.06;;;5.19;100.00
51452;BME280;37521;52.020;-1.740;2023-04-09T08:47:22;100497.69;;;5.20;100.00
51452;BME280;37521;52.020;-1.740;2023-04-09T08:49:51;100488.91;;;5.24;100.00
51452;BME280;37521;52.020;-1.740;2023-04-09T08:52:29;100491.28;;;5.38;100.00
51452;BME280;37521;52.020;-1.740;2023-04-09T08:54:59;100485.22;;;5.34;100.00
51452;BME280;37521;52.020;-1.740;2023-04-09T08:57:27;100487.81;;;5.37;100.00
51452;BME280;37521;52.020;-1.740;2023-04-09T08:59:55;100483.88;;;5.61;100.00
51452;BME280;37521;52.020;-1.740;2023-04-09T09:02:24;100479.22;;;5.77;100.00
51452;BME280;37521;52.020;-1.740;2023-04-09T09:04:53;100488.72;;;5.81;100.00
51452;BME280;37521;52.020;-1.740;2023-04-09T09:07:28;100491.16;;;5.93;100.00
51452;BME280;37521;52.020;-1.740;2023-04-09T09:09:57;100485.09;;;5.88;100.00
51452;BME280;37521;52.020;-1.740;2023-04-09T09:12:30;100481.72;;;5.83;100.00
51452;BME280;37521;52.020;-1.740;2023-04-09T09:14:58;100472.06;;;5.85;100.00
51452;BME280;37521;52.020;-1.740;2023-04-09T09:17:27;100485.09;;;5.91;100.00
51452;BME280;37521;52.020;-1.740;2023-04-09T09:19:56;100477.09;;;5.97;100.00
51452;BME280;37521;52.020;-1.740;2023-04-09T09:22:24;100484.72;;;6.08;100.00
51452;BME280;37521;52.020;-1.740;2023-04-09T09:24:54;100489.97;;;6.08;100.00
51452;BME280;37521;52.020;-1.740;2023-04-09T09:27:41;100491.53;;;6.18;100.00
51452;BME280;37521;52.020;-1.740;2023-04-09T09:30:19;100485.44;;;6.58;100.00
51452;BME280;37521;52.020;-1.740;2023-04-09T09:32:51;100483.78;;;6.91;100.00
51452;BME280;37521;52.020;-1.740;2023-04-09T09:35:20;100481.31;;;7.21;100.00
51452;BME280;37521;52.020;-1.740;2023-04-09T09:38:00;100466.03;;;7.02;100.00
51452;BME280;37521;52.020;-1.740;2023-04-09T09:40:31;100472.94;;;6.68;100.00
51452;BME280;37521;52.020;-1.740;2023-04-09T09:42:59;100483.25;;;6.38;100.00
51452;BME280;37521;52.020;-1.740;2023-04-09T09:45:28;100480.28;;;6.53;100.00
51452;BME280;37521;52.020;-1.740;2023-04-09T09:47:57;100480.53;;;6.80;100.00
51452;BME280;37521;52.020;-1.740;2023-04-09T09:50:27;100465.19;;;7.00;100.00
51452;BME280;37521;52.020;-1.740;2023-04-09T09:53:01;100465.28;;;7.31;100.00
51452;BME280;37521;52.020;-1.740;2023-04-09T09:55:32;100464.19;;;7.40;100.00
51452;BME280;37521;52.020;-1.740;2023-04-09T09:58:05;100467.72;;;7.72;100.00
51452;BME280;37521;52.020;-1.740;2023-04-09T10:00:39;100461.28;;;7.83;100.00
51452;BME280;37521;52.020;-1.740;2023-04-09T10:03:13;100451.84;;;7.75;100.00
51452;BME280;37521;52.020;-1.740;2023-04-09T10:05:43;100459.41;;;7.87;100.00
51452;BME280;37521;52.020;-1.740;2023-04-09T10:08:12;100459.88;;;8.01;100.00
51452;BME280;37521;52.020;-1.740;2023-04-09T10:10:41;100462.59;;;7.98;100.00
51452;BME280;37521;52.020;-1.740;2023-04-09T10:13:15;100453.88;;;7.98;100.00
51452;BME280;37521;52.020;-1.740;2023-04-09T10:15:47;100456.63;;;7.93;100.00
51452;BME280;37521;52.020;-1.740;2023-04-09T10:18:17;100453.53;;;8.08;100.00
51452;BME280;37521;52.020;-1.740;2023-04-09T10:20:49;100438.31;;;8.19;100.00
51452;BME280;37521;52.020;-1.740;2023-04-09T10:23:23;100442.44;;;8.28;100.00
51452;BME280;37521;52.020;-1.740;2023-04-09T10:25:55;100430.97;;;8.31;100.00
51452;BME280;37521;52.020;-1.740;2023-04-09T10:28:24;100424.78;;;8.32;100.00
51452;BME280;37521;52.020;-1.740;2023-04-09T10:30:53;100422.44;;;8.52;100.00
51452;BME280;37521;52.020;-1.740;2023-04-09T10:33:23;100417.63;;;8.93;100.00
51452;BME280;37521;52.020;-1.740;2023-04-09T10:35:54;100411.81;;;9.10;100.00
51452;BME280;37521;52.020;-1.740;2023-04-09T10:38:44;100405.91;;;9.01;100.00
51452;BME280;37521;52.020;-1.740;2023-04-09T10:41:20;100406.53;;;9.35;100.00
51452;BME280;37521;52.020;-1.740;2023-04-09T10:43:49;100410.28;;;9.77;100.00
51452;BME280;37521;52.020;-1.740;2023-04-09T10:46:36;100395.50;;;9.97;100.00
51452;BME280;37521;52.020;-1.740;2023-04-09T10:49:08;100407.78;;;9.98;100.00
51452;BME280;37521;52.020;-1.740;2023-04-09T10:51:37;100390.38;;;9.69;100.00
51452;BME280;37521;52.020;-1.740;2023-04-09T10:54:06;100388.44;;;9.49;100.00
51452;BME280;37521;52.020;-1.740;2023-04-09T10:57:15;100391.69;;;9.57;100.00
51452;BME280;37521;52.020;-1.740;2023-04-09T10:59:45;100390.44;;;9.67;100.00
51452;BME280;37521;52.020;-1.740;2023-04-09T11:02:53;100392.66;;;9.54;100.00
51452;BME280;37521;52.020;-1.740;2023-04-09T11:05:31;100386.25;;;9.85;100.00
51452;BME280;37521;52.020;-1.740;2023-04-09T11:08:04;100377.22;;;10.14;100.00
51452;BME280;37521;52.020;-1.740;2023-04-09T11:10:33;100366.69;;;10.14;100.00
51452;BME280;37521;52.020;-1.740;2023-04-09T11:13:02;100368.06;;;10.68;100.00
51452;BME280;37521;52.020;-1.740;2023-04-09T11:15:33;100366.25;;;10.70;100.00
51452;BME280;37521;52.020;-1.740;2023-04-09T11:18:02;100353.28;;;10.64;100.00
51452;BME280;37521;52.020;-1.740;2023-04-09T11:20:33;100351.63;;;10.83;100.00
51452;BME280;37521;52.020;-1.740;2023-04-09T11:23:01;100341.84;;;11.06;100.00
51452;BME280;37521;52.020;-1.740;2023-04-09T11:25:31;100336.16;;;11.15;100.00
51452;BME280;37521;52.020;-1.740;2023-04-09T11:28:02;100338.94;;;10.91;100.00
51452;BME280;37521;52.020;-1.740;2023-04-09T11:30:31;100338.94;;;10.91;100.00
51452;BME280;37521;52.020;-1.740;2023-04-09T11:33:01;100333.38;;;10.77;100.00
51452;BME280;37521;52.020;-1.740;2023-04-09T11:35:32;100327.63;;;10.88;100.00
51452;BME280;37521;52.020;-1.740;2023-04-09T11:38:05;100326.78;;;10.87;100.00
51452;BME280;37521;52.020;-1.740;2023-04-09T11:40:33;100313.94;;;10.58;100.00
51452;BME280;37521;52.020;-1.740;2023-04-09T11:43:03;100321.38;;;10.90;100.00
51452;BME280;37521;52.020;-1.740;2023-04-09T11:45:31;100313.19;;;11.36;100.00
51452;BME280;37521;52.020;-1.740;2023-04-09T11:48:01;100303.97;;;11.65;100.00
51452;BME280;37521;52.020;-1.740;2023-04-09T11:50:29;100295.41;;;11.97;100.00
51452;BME280;37521;52.020;-1.740;2023-04-09T11:52:59;100296.56;;;12.11;100.00
51452;BME280;37521;52.020;-1.740;2023-04-09T11:55:28;100294.03;;;12.08;100.00
51452;BME280;37521;52.020;-1.740;2023-04-09T11:57:57;100286.66;;;11.95;100.00
51452;BME280;37521;52.020;-1.740;2023-04-09T12:00:28;100292.34;;;11.49;100.00
51452;BME280;37521;52.020;-1.740;2023-04-09T12:02:59;100282.47;;;11.33;100.00
51452;BME280;37521;52.020;-1.740;2023-04-09T12:05:30;100281.94;;;11.45;100.00
51452;BME280;37521;52.020;-1.740;2023-04-09T12:08:00;100276.91;;;11.97;100.00
51452;BME280;37521;52.020;-1.740;2023-04-09T12:10:32;100272.50;;;11.96;100.00
51452;BME280;37521;52.020;-1.740;2023-04-09T12:13:02;100265.06;;;11.67;100.00
51452;BME280;37521;52.020;-1.740;2023-04-09T12:15:33;100266.13;;;11.44;100.00
51452;BME280;37521;52.020;-1.740;2023-04-09T12:18:02;100263.31;;;11.28;100.00
51452;BME280;37521;52.020;-1.740;2023-04-09T12:20:33;100263.19;;;11.31;100.00
51452;BME280;37521;52.020;-1.740;2023-04-09T12:23:02;100255.78;;;11.39;100.00
51452;BME280;37521;52.020;-1.740;2023-04-09T12:25:33;100252.03;;;11.25;100.00
51452;BME280;37521;52.020;-1.740;2023-04-09T12:28:02;100260.44;;;11.14;100.00
51452;BME280;37521;52.020;-1.740;2023-04-09T12:30:33;100258.47;;;11.19;100.00
51452;BME280;37521;52.020;-1.740;2023-04-09T12:33:02;100259.19;;;11.41;100.00
51452;BME280;37521;52.020;-1.740;2023-04-09T12:35:30;100255.78;;;11.77;100.00
51452;BME280;37521;52.020;-1.740;2023-04-09T12:38:00;100260.66;;;12.05;100.00
51452;BME280;37521;52.020;-1.740;2023-04-09T12:40:28;100257.16;;;12.22;100.00
51452;BME280;37521;52.020;-1.740;2023-04-09T12:42:57;100256.53;;;12.17;100.00
51452;BME280;37521;52.020;-1.740;2023-04-09T12:45:25;100243.09;;;12.03;100.00
51452;BME280;37521;52.020;-1.740;2023-04-09T12:47:55;100246.06;;;11.59;100.00
51452;BME280;37521;52.020;-1.740;2023-04-09T12:50:23;100242.16;;;11.28;100.00
51452;BME280;37521;52.020;-1.740;2023-04-09T12:52:52;100238.94;;;11.22;100.00
51452;BME280;37521;52.020;-1.740;2023-04-09T12:55:20;100249.03;;;11.32;100.00